createdAt,value
2022-10-01T00:01:58.162Z,100.00
2022-10-01T00:04:24.806Z,100.00
2022-10-01T00:06:51.271Z,100.00
2022-10-01T00:09:18.309Z,100.00
2022-10-01T00:11:44.789Z,100.00
2022-10-01T00:14:11.259Z,100.00
2022-10-01T00:16:38.193Z,100.00
2022-10-01T00:19:04.757Z,100.00
2022-10-01T00:21:32.437Z,100.00
2022-10-01T00:24:04.811Z,100.00
2022-10-01T00:26:32.654Z,100.00
2022-10-01T00:29:05.185Z,100.00
2022-10-01T00:31:32.496Z,100.00
2022-10-01T00:34:02.789Z,100.00
2022-10-01T00:36:29.854Z,100.00
2022-10-01T00:39:00.320Z,100.00
2022-10-01T00:41:28.777Z,100.00
2022-10-01T00:44:00.719Z,100.00
2022-10-01T00:46:38.823Z,100.00
2022-10-01T00:49:10.339Z,100.00
2022-10-01T00:51:42.633Z,100.00
2022-10-01T00:54:15.297Z,100.00
2022-10-01T00:56:43.891Z,100.00
2022-10-01T00:59:12.036Z,100.00
2022-10-01T01:01:39.321Z,100.00
2022-10-01T01:04:16.575Z,100.00
2022-10-01T01:06:47.629Z,100.00
2022-10-01T01:09:14.422Z,100.00
2022-10-01T01:12:05.270Z,100.00
2022-10-01T01:14:41.949Z,100.00
2022-10-01T01:17:18.395Z,100.00
2022-10-01T01:19:47.904Z,100.00
2022-10-01T01:22:16.328Z,100.00
2022-10-01T01:24:55.902Z,100.00
2022-10-01T01:27:36.003Z,100.00
2022-10-01T01:30:15.057Z,100.00
2022-10-01T01:32:50.356Z,100.00
2022-10-01T01:35:44.130Z,100.00
2022-10-01T01:38:15.700Z,100.00
2022-10-01T01:40:44.514Z,100.00
2022-10-01T01:43:20.483Z,100.00
2022-10-01T01:45:53.692Z,100.00
2022-10-01T01:48:20.384Z,100.00
2022-10-01T01:50:52.426Z,100.00
2022-10-01T01:53:20.202Z,100.00
2022-10-01T01:55:49.396Z,100.00
2022-10-01T01:58:18.668Z,100.00
2022-10-01T02:00:48.390Z,100.00
2022-10-01T02:03:14.927Z,100.00
2022-10-01T02:05:51.696Z,100.00
2022-10-01T02:08:24.375Z,100.00
2022-10-01T02:10:59.879Z,100.00
2022-10-01T02:13:45.577Z,100.00
2022-10-01T02:16:27.558Z,100.00
2022-10-01T02:19:05.078Z,100.00
2022-10-01T02:21:39.653Z,100.00
2022-10-01T02:24:14.578Z,100.00
2022-10-01T02:26:43.434Z,100.00
2022-10-01T02:29:13.569Z,100.00
2022-10-01T02:31:41.385Z,100.00
2022-10-01T02:34:12.733Z,100.00
2022-10-01T02:36:41.631Z,100.00
2022-10-01T02:39:09.827Z,100.00
2022-10-01T02:41:37.046Z,100.00
2022-10-01T02:44:12.382Z,100.00
2022-10-01T02:46:52.404Z,100.00
2022-10-01T02:49:19.268Z,100.00
2022-10-01T02:52:02.574Z,100.00
2022-10-01T02:54:40.303Z,100.00
2022-10-01T02:57:27.181Z,100.00
2022-10-01T02:59:57.134Z,100.00
2022-10-01T03:02:28.255Z,100.00
2022-10-01T03:04:58.940Z,100.00
2022-10-01T03:07:27.380Z,100.00
2022-10-01T03:09:54.639Z,100.00
2022-10-01T03:12:21.925Z,100.00
2022-10-01T03:14:48.454Z,100.00
2022-10-01T03:17:16.227Z,100.00
2022-10-01T03:19:42.912Z,100.00
2022-10-01T03:22:13.088Z,100.00
2022-10-01T03:24:39.549Z,100.00
2022-10-01T03:27:06.639Z,100.00
2022-10-01T03:29:33.416Z,100.00
2022-10-01T03:31:59.951Z,100.00
2022-10-01T03:34:26.624Z,100.00
2022-10-01T03:36:53.321Z,100.00
2022-10-01T03:39:20.038Z,100.00
2022-10-01T03:41:46.544Z,100.00
2022-10-01T03:44:13.053Z,100.00
2022-10-01T03:46:39.609Z,100.00
2022-10-01T03:49:06.107Z,100.00
2022-10-01T03:51:33.680Z,100.00
2022-10-01T03:54:00.309Z,100.00
2022-10-01T03:56:26.853Z,100.00
2022-10-01T03:58:53.341Z,100.00
2022-10-01T04:01:20.360Z,100.00
2022-10-01T04:03:47.157Z,100.00
2022-10-01T04:06:13.746Z,100.00
2022-10-01T04:08:40.514Z,100.00
2022-10-01T04:11:07.627Z,100.00
2022-10-01T04:13:34.897Z,100.00
2022-10-01T04:16:05.505Z,100.00
2022-10-01T04:18:32.233Z,100.00
2022-10-01T04:20:58.949Z,100.00
2022-10-01T04:23:26.697Z,100.00
2022-10-01T04:25:53.397Z,100.00
2022-10-01T04:28:20.119Z,100.00
2022-10-01T04:30:46.877Z,100.00
2022-10-01T04:33:16.055Z,100.00
2022-10-01T04:35:43.595Z,100.00
2022-10-01T04:38:16.529Z,100.00
2022-10-01T04:40:43.019Z,100.00
2022-10-01T04:43:11.127Z,100.00
2022-10-01T04:45:38.006Z,100.00
2022-10-01T04:48:05.247Z,100.00
2022-10-01T04:50:32.612Z,100.00
2022-10-01T04:52:59.318Z,100.00
2022-10-01T04:55:25.887Z,100.00
2022-10-01T04:57:52.337Z,100.00
2022-10-01T05:00:22.008Z,100.00
2022-10-01T05:02:49.919Z,100.00
2022-10-01T05:05:18.166Z,100.00
2022-10-01T05:07:45.636Z,100.00
2022-10-01T05:10:15.661Z,100.00
2022-10-01T05:12:42.363Z,100.00
2022-10-01T05:15:09.886Z,100.00
2022-10-01T05:17:36.624Z,100.00
2022-10-01T05:20:06.051Z,100.00
2022-10-01T05:22:33.159Z,100.00
2022-10-01T05:25:01.154Z,100.00
2022-10-01T05:27:28.133Z,100.00
2022-10-01T05:29:54.948Z,100.00
2022-10-01T05:32:21.411Z,100.00
2022-10-01T05:34:52.619Z,100.00
2022-10-01T05:37:19.844Z,100.00
2022-10-01T05:39:46.625Z,100.00
2022-10-01T05:42:13.138Z,100.00
2022-10-01T05:44:46.027Z,100.00
2022-10-01T05:47:14.156Z,100.00
2022-10-01T05:49:42.894Z,100.00
2022-10-01T05:52:14.125Z,100.00
2022-10-01T05:54:41.414Z,100.00
2022-10-01T05:57:08.522Z,100.00
2022-10-01T05:59:35.452Z,100.00
2022-10-01T06:02:04.013Z,100.00
2022-10-01T06:04:30.928Z,100.00
2022-10-01T06:06:57.574Z,100.00
2022-10-01T06:09:24.031Z,100.00
2022-10-01T06:11:50.612Z,100.00
2022-10-01T06:14:17.083Z,100.00
2022-10-01T06:16:43.795Z,100.00
2022-10-01T06:19:10.492Z,100.00
2022-10-01T06:21:37.398Z,100.00
2022-10-01T06:24:04.245Z,100.00
2022-10-01T06:26:31.275Z,100.00
2022-10-01T06:28:57.809Z,100.00
2022-10-01T06:31:25.249Z,100.00
2022-10-01T06:33:51.863Z,100.00
2022-10-01T06:36:18.500Z,100.00
2022-10-01T06:38:48.268Z,100.00
2022-10-01T06:41:14.941Z,100.00
2022-10-01T06:43:41.459Z,98.10
2022-10-01T06:46:08.048Z,96.81
2022-10-01T06:48:36.426Z,89.65
2022-10-01T06:51:04.133Z,87.23
2022-10-01T06:53:30.880Z,94.07
2022-10-01T06:55:57.820Z,98.09
2022-10-01T06:58:28.312Z,93.56
2022-10-01T07:01:03.301Z,91.36
2022-10-01T07:03:31.233Z,91.56
2022-10-01T07:06:05.351Z,92.38
2022-10-01T07:08:33.203Z,95.31
2022-10-01T07:11:05.011Z,93.21
2022-10-01T07:13:31.511Z,95.20
2022-10-01T07:15:58.095Z,96.78
2022-10-01T07:18:24.682Z,97.29
2022-10-01T07:20:51.195Z,98.84
2022-10-01T07:23:17.988Z,95.04
2022-10-01T07:25:45.785Z,88.63
2022-10-01T07:28:18.962Z,85.50
2022-10-01T07:31:11.454Z,83.65
2022-10-01T07:33:41.646Z,81.44
2022-10-01T07:36:10.856Z,77.55
2022-10-01T07:38:37.307Z,75.65
2022-10-01T07:41:04.711Z,73.37
2022-10-01T07:43:34.229Z,73.21
2022-10-01T07:46:02.010Z,69.38
2022-10-01T07:48:28.784Z,70.60
2022-10-01T07:50:55.269Z,75.51
2022-10-01T07:53:23.644Z,80.66
2022-10-01T07:55:50.115Z,84.65
2022-10-01T07:58:16.671Z,86.09
2022-10-01T08:00:43.607Z,87.92
2022-10-01T08:03:12.200Z,87.65
2022-10-01T08:05:42.069Z,84.17
2022-10-01T08:08:09.047Z,86.17
2022-10-01T08:10:38.264Z,87.34
2022-10-01T08:13:14.862Z,86.20
2022-10-01T08:15:43.472Z,86.98
2022-10-01T08:18:11.273Z,87.38
2022-10-01T08:20:39.622Z,88.41
2022-10-01T08:23:10.375Z,88.85
2022-10-01T08:25:37.561Z,90.39
2022-10-01T08:28:04.645Z,88.50
2022-10-01T08:30:31.330Z,88.56
2022-10-01T08:32:59.873Z,86.16
2022-10-01T08:35:28.639Z,86.50
2022-10-01T08:38:02.052Z,85.15
2022-10-01T08:40:29.592Z,85.14
2022-10-01T08:42:56.013Z,84.67
2022-10-01T08:45:51.722Z,82.56
2022-10-01T08:48:46.255Z,83.53
2022-10-01T08:51:29.842Z,81.73
2022-10-01T08:54:04.743Z,83.77
2022-10-01T08:56:35.971Z,82.94
2022-10-01T08:59:33.877Z,83.29
2022-10-01T09:02:00.470Z,80.50
2022-10-01T09:04:27.915Z,81.20
2022-10-01T09:07:19.615Z,80.30
2022-10-01T09:10:17.113Z,79.99
2022-10-01T09:13:13.457Z,81.62
2022-10-01T09:15:51.986Z,82.46
2022-10-01T09:18:28.411Z,80.63
2022-10-01T09:21:00.094Z,79.89
2022-10-01T09:23:29.763Z,78.14
2022-10-01T09:25:59.650Z,77.32
2022-10-01T09:28:34.117Z,78.77
2022-10-01T09:31:17.529Z,77.35
2022-10-01T09:33:55.943Z,77.59
2022-10-01T09:36:49.979Z,76.81
2022-10-01T09:39:39.977Z,79.13
2022-10-01T09:42:06.710Z,79.77
2022-10-01T09:44:34.117Z,79.68
2022-10-01T09:47:01.096Z,78.41
2022-10-01T09:49:39.550Z,78.88
2022-10-01T09:52:30.683Z,77.60
2022-10-01T09:55:11.465Z,78.81
2022-10-01T09:57:43.211Z,78.94
2022-10-01T10:00:25.174Z,78.57
2022-10-01T10:02:54.181Z,76.98
2022-10-01T10:05:26.031Z,78.17
2022-10-01T10:08:03.583Z,81.24
2022-10-01T10:10:35.900Z,81.44
2022-10-01T10:13:20.205Z,79.44
2022-10-01T10:15:53.638Z,79.12
2022-10-01T10:18:28.588Z,77.33
2022-10-01T10:20:56.266Z,78.11
2022-10-01T10:23:29.597Z,77.22
2022-10-01T10:26:03.182Z,79.99
2022-10-01T10:28:43.820Z,78.78
2022-10-01T10:31:19.910Z,79.25
2022-10-01T10:33:57.610Z,81.61
2022-10-01T10:36:29.372Z,78.10
2022-10-01T10:38:57.894Z,79.18
2022-10-01T10:41:26.622Z,78.76
2022-10-01T10:44:07.248Z,77.65
2022-10-01T10:46:38.168Z,75.66
2022-10-01T10:49:08.730Z,75.54
2022-10-01T10:51:56.551Z,76.16
2022-10-01T10:54:41.334Z,75.68
2022-10-01T10:57:21.308Z,79.67
2022-10-01T11:00:00.215Z,80.97
2022-10-01T11:02:32.281Z,81.73
2022-10-01T11:05:03.828Z,80.28
2022-10-01T11:07:31.778Z,81.48
2022-10-01T11:10:04.468Z,83.40
2022-10-01T11:12:34.274Z,83.55
2022-10-01T11:15:26.163Z,85.68
2022-10-01T11:18:16.535Z,83.01
2022-10-01T11:21:04.355Z,86.59
2022-10-01T11:23:55.294Z,85.87
2022-10-01T11:26:25.059Z,88.04
2022-10-01T11:29:00.533Z,90.73
2022-10-01T11:31:51.529Z,92.11
2022-10-01T11:34:39.418Z,93.66
2022-10-01T11:37:16.293Z,96.72
2022-10-01T11:39:44.913Z,98.79
2022-10-01T11:42:18.933Z,99.37
2022-10-01T11:44:52.435Z,100.00
2022-10-01T11:47:30.486Z,100.00
2022-10-01T11:50:03.210Z,100.00
2022-10-01T11:53:20.530Z,100.00
2022-10-01T11:56:12.044Z,100.00
2022-10-01T11:58:58.721Z,100.00
2022-10-01T12:02:02.488Z,100.00
2022-10-01T12:04:32.492Z,100.00
2022-10-01T12:07:16.991Z,100.00
2022-10-01T12:09:55.271Z,100.00
2022-10-01T12:12:30.991Z,100.00
2022-10-01T12:15:11.264Z,100.00
2022-10-01T12:17:54.020Z,100.00
2022-10-01T12:20:29.932Z,100.00
2022-10-01T12:22:59.786Z,100.00
2022-10-01T12:25:44.344Z,100.00
2022-10-01T12:28:18.422Z,100.00
2022-10-01T12:30:53.863Z,100.00
2022-10-01T12:33:39.250Z,100.00
2022-10-01T12:36:11.602Z,100.00
2022-10-01T12:39:29.382Z,100.00
2022-10-01T12:42:07.554Z,100.00
2022-10-01T12:44:39.978Z,100.00
2022-10-01T12:47:29.906Z,100.00
2022-10-01T12:50:12.052Z,100.00
2022-10-01T12:52:38.359Z,100.00
2022-10-01T12:55:13.796Z,100.00
2022-10-01T12:58:15.789Z,100.00
2022-10-01T13:00:52.294Z,100.00
2022-10-01T13:03:21.651Z,100.00
2022-10-01T13:06:23.362Z,100.00
2022-10-01T13:09:06.004Z,100.00
2022-10-01T13:11:49.053Z,100.00
2022-10-01T13:14:18.886Z,100.00
2022-10-01T13:17:05.785Z,100.00
2022-10-01T13:19:39.576Z,100.00
2022-10-01T13:22:14.765Z,100.00
2022-10-01T13:24:51.458Z,100.00
2022-10-01T13:27:46.633Z,100.00
2022-10-01T13:30:18.406Z,100.00
2022-10-01T13:33:00.853Z,100.00
2022-10-01T13:35:35.188Z,100.00
2022-10-01T13:38:29.023Z,100.00
2022-10-01T13:41:01.798Z,100.00
2022-10-01T13:43:30.539Z,100.00
2022-10-01T13:46:07.096Z,100.00
2022-10-01T13:48:35.382Z,100.00
2022-10-01T13:51:11.762Z,100.00
2022-10-01T13:53:50.028Z,100.00
2022-10-01T13:56:37.766Z,100.00
2022-10-01T13:59:21.406Z,100.00
2022-10-01T14:01:47.995Z,100.00
2022-10-01T14:04:38.732Z,100.00
2022-10-01T14:07:17.388Z,100.00
2022-10-01T14:09:52.153Z,100.00
2022-10-01T14:12:55.581Z,100.00
2022-10-01T14:15:44.178Z,100.00
2022-10-01T14:18:22.028Z,100.00
2022-10-01T14:21:03.727Z,100.00
2022-10-01T14:23:56.195Z,100.00
2022-10-01T14:26:52.865Z,100.00
2022-10-01T14:29:31.320Z,100.00
2022-10-01T14:32:14.776Z,100.00
2022-10-01T14:34:54.826Z,100.00
2022-10-01T14:37:21.891Z,100.00
2022-10-01T14:40:01.730Z,100.00
2022-10-01T14:42:28.376Z,100.00
2022-10-01T14:44:54.907Z,100.00
2022-10-01T14:47:27.863Z,100.00
2022-10-01T14:49:55.172Z,100.00
2022-10-01T14:52:29.132Z,100.00
2022-10-01T14:55:05.019Z,100.00
2022-10-01T14:57:38.586Z,100.00
2022-10-01T15:00:14.534Z,100.00
2022-10-01T15:02:44.930Z,100.00
2022-10-01T15:05:27.761Z,100.00
2022-10-01T15:07:54.598Z,100.00
2022-10-01T15:10:25.762Z,100.00
2022-10-01T15:12:55.215Z,100.00
2022-10-01T15:15:31.123Z,100.00
2022-10-01T15:17:58.014Z,100.00
2022-10-01T15:20:24.817Z,100.00
2022-10-01T15:23:00.360Z,100.00
2022-10-01T15:25:30.100Z,100.00
2022-10-01T15:27:56.782Z,100.00
2022-10-01T15:30:26.469Z,100.00
2022-10-01T15:32:53.233Z,100.00
2022-10-01T15:35:22.260Z,100.00
2022-10-01T15:37:51.513Z,100.00
2022-10-01T15:40:26.402Z,100.00
2022-10-01T15:43:26.611Z,100.00
2022-10-01T15:46:05.324Z,100.00
2022-10-01T15:48:33.202Z,100.00
2022-10-01T15:51:03.432Z,100.00
2022-10-01T15:53:31.685Z,100.00
2022-10-01T15:56:00.463Z,100.00
2022-10-01T15:58:27.159Z,100.00
2022-10-01T16:01:05.028Z,100.00
2022-10-01T16:03:41.702Z,100.00
2022-10-01T16:06:20.924Z,100.00
2022-10-01T16:09:06.170Z,100.00
2022-10-01T16:11:52.412Z,100.00
2022-10-01T16:14:21.651Z,100.00
2022-10-01T16:16:50.533Z,100.00
2022-10-01T16:19:28.238Z,100.00
2022-10-01T16:22:14.898Z,100.00
2022-10-01T16:24:44.456Z,100.00
2022-10-01T16:27:43.730Z,100.00
2022-10-01T16:30:18.948Z,100.00
2022-10-01T16:32:45.635Z,100.00
2022-10-01T16:35:21.566Z,100.00
2022-10-01T16:37:50.361Z,100.00
2022-10-01T16:40:22.588Z,100.00
2022-10-01T16:42:50.520Z,100.00
2022-10-01T16:45:24.191Z,100.00
2022-10-01T16:47:51.436Z,100.00
2022-10-01T16:50:21.429Z,100.00
2022-10-01T16:52:51.881Z,100.00
2022-10-01T16:55:26.500Z,100.00
2022-10-01T16:57:57.444Z,100.00
2022-10-01T17:00:26.320Z,100.00
2022-10-01T17:02:57.997Z,100.00
2022-10-01T17:05:26.284Z,100.00
2022-10-01T17:07:54.248Z,100.00
2022-10-01T17:10:23.480Z,100.00
2022-10-01T17:12:50.280Z,100.00
2022-10-01T17:15:20.214Z,100.00
2022-10-01T17:17:46.911Z,100.00
2022-10-01T17:20:14.232Z,100.00
2022-10-01T17:22:42.816Z,100.00
2022-10-01T17:25:15.269Z,100.00
2022-10-01T17:27:41.785Z,100.00
2022-10-01T17:30:08.707Z,100.00
2022-10-01T17:32:37.214Z,100.00
2022-10-01T17:35:04.299Z,100.00
2022-10-01T17:37:31.267Z,100.00
2022-10-01T17:39:57.735Z,100.00
2022-10-01T17:42:24.222Z,100.00
2022-10-01T17:44:51.399Z,100.00
2022-10-01T17:47:17.984Z,100.00
2022-10-01T17:49:44.500Z,100.00
2022-10-01T17:52:11.144Z,100.00
2022-10-01T17:54:38.013Z,100.00
2022-10-01T17:57:05.190Z,100.00
2022-10-01T17:59:31.961Z,100.00
2022-10-01T18:01:58.552Z,100.00
2022-10-01T18:04:27.918Z,100.00
2022-10-01T18:06:59.562Z,100.00
2022-10-01T18:09:26.262Z,100.00
2022-10-01T18:11:52.751Z,100.00
2022-10-01T18:14:19.195Z,100.00
2022-10-01T18:16:45.674Z,100.00
2022-10-01T18:19:52.453Z,100.00
2022-10-01T18:22:01.512Z,100.00
2022-10-01T18:24:29.070Z,100.00
2022-10-01T18:26:56.376Z,100.00
2022-10-01T18:29:25.191Z,100.00
2022-10-01T18:32:02.051Z,100.00
2022-10-01T18:34:38.342Z,100.00
2022-10-01T18:37:15.904Z,100.00
2022-10-01T18:39:45.606Z,100.00
2022-10-01T18:42:17.143Z,100.00
2022-10-01T18:44:43.699Z,100.00
2022-10-01T18:47:10.081Z,100.00
2022-10-01T18:50:06.590Z,100.00
2022-10-01T18:52:51.229Z,100.00
2022-10-01T18:55:27.268Z,100.00
2022-10-01T18:58:05.712Z,100.00
2022-10-01T19:00:49.046Z,100.00
2022-10-01T19:03:53.938Z,100.00
2022-10-01T19:06:29.679Z,100.00
2022-10-01T19:09:05.716Z,100.00
2022-10-01T19:11:38.343Z,100.00
2022-10-01T19:14:23.232Z,100.00
2022-10-01T19:17:08.898Z,100.00
2022-10-01T19:20:14.203Z,100.00
2022-10-01T19:23:13.281Z,100.00
2022-10-01T19:25:51.191Z,100.00
2022-10-01T19:28:26.829Z,100.00
2022-10-01T19:31:19.810Z,100.00
2022-10-01T19:33:55.904Z,100.00
2022-10-01T19:36:34.404Z,100.00
2022-10-01T19:39:06.443Z,100.00
2022-10-01T19:41:33.006Z,100.00
2022-10-01T19:44:28.611Z,100.00
2022-10-01T19:47:00.962Z,100.00
2022-10-01T19:49:34.070Z,100.00
2022-10-01T19:52:09.900Z,100.00
2022-10-01T19:54:45.087Z,100.00
2022-10-01T19:57:23.040Z,100.00
2022-10-01T19:59:55.789Z,100.00
2022-10-01T20:02:31.324Z,100.00
2022-10-01T20:05:16.041Z,100.00
2022-10-01T20:07:51.844Z,100.00
2022-10-01T20:10:32.978Z,100.00
2022-10-01T20:13:14.294Z,100.00
2022-10-01T20:15:55.892Z,100.00
2022-10-01T20:18:40.843Z,100.00
2022-10-01T20:21:22.462Z,100.00
2022-10-01T20:24:16.851Z,100.00
2022-10-01T20:26:43.413Z,100.00
2022-10-01T20:29:21.147Z,100.00
2022-10-01T20:31:57.794Z,100.00
2022-10-01T20:34:58.382Z,100.00
2022-10-01T20:37:57.473Z,100.00
2022-10-01T20:40:39.030Z,100.00
2022-10-01T20:43:12.732Z,100.00
2022-10-01T20:45:40.789Z,100.00
2022-10-01T20:48:15.623Z,100.00
2022-10-01T20:50:45.546Z,100.00
2022-10-01T20:53:44.365Z,100.00
2022-10-01T20:56:15.754Z,100.00
2022-10-01T20:59:15.644Z,100.00
2022-10-01T21:01:56.274Z,100.00
2022-10-01T21:04:28.922Z,100.00
2022-10-01T21:07:01.917Z,100.00
2022-10-01T21:09:38.249Z,100.00
2022-10-01T21:12:19.332Z,100.00
2022-10-01T21:14:51.442Z,100.00
2022-10-01T21:17:56.839Z,100.00
2022-10-01T21:20:23.376Z,100.00
2022-10-01T21:23:08.684Z,100.00
2022-10-01T21:26:03.157Z,100.00
2022-10-01T21:28:57.081Z,100.00
2022-10-01T21:31:50.477Z,100.00
2022-10-01T21:34:29.870Z,100.00
2022-10-01T21:37:08.533Z,100.00
2022-10-01T21:39:48.607Z,100.00
2022-10-01T21:42:15.041Z,100.00
2022-10-01T21:45:16.463Z,100.00
2022-10-01T21:47:52.527Z,100.00
2022-10-01T21:50:48.444Z,100.00
2022-10-01T21:53:49.605Z,100.00
2022-10-01T21:56:24.221Z,100.00
2022-10-01T21:58:59.520Z,100.00
2022-10-01T22:01:44.608Z,100.00
2022-10-01T22:04:27.007Z,100.00
2022-10-01T22:07:16.600Z,100.00
2022-10-01T22:10:17.314Z,100.00
2022-10-01T22:12:50.093Z,100.00
2022-10-01T22:15:25.600Z,100.00
2022-10-01T22:17:54.196Z,100.00
2022-10-01T22:20:30.691Z,100.00
2022-10-01T22:23:03.812Z,100.00
2022-10-01T22:25:32.106Z,100.00
2022-10-01T22:28:07.061Z,100.00
2022-10-01T22:30:37.182Z,100.00
2022-10-01T22:33:15.621Z,100.00
2022-10-01T22:35:53.983Z,100.00
2022-10-01T22:38:39.067Z,100.00
2022-10-01T22:41:25.963Z,100.00
2022-10-01T22:43:52.646Z,100.00
2022-10-01T22:46:37.928Z,100.00
2022-10-01T22:49:27.748Z,100.00
2022-10-01T22:52:18.748Z,100.00
2022-10-01T22:55:09.694Z,100.00
2022-10-01T22:58:17.907Z,100.00
2022-10-01T23:01:22.889Z,100.00
2022-10-01T23:04:04.417Z,100.00
2022-10-01T23:06:57.192Z,100.00
2022-10-01T23:09:36.587Z,100.00
2022-10-01T23:12:09.850Z,100.00
2022-10-01T23:14:48.969Z,100.00
2022-10-01T23:18:06.950Z,100.00
2022-10-01T23:20:35.748Z,100.00
2022-10-01T23:23:14.881Z,100.00
2022-10-01T23:25:59.810Z,100.00
2022-10-01T23:28:29.073Z,100.00
2022-10-01T23:31:06.598Z,100.00
2022-10-01T23:33:52.493Z,100.00
2022-10-01T23:36:24.708Z,100.00
2022-10-01T23:39:07.564Z,100.00
2022-10-01T23:41:58.182Z,100.00
2022-10-01T23:44:50.027Z,100.00
2022-10-01T23:47:24.140Z,100.00
2022-10-01T23:49:55.666Z,100.00
2022-10-01T23:52:32.211Z,100.00
2022-10-01T23:55:28.010Z,100.00
2022-10-01T23:58:03.211Z,100.00
